createdAt,value
2023-11-18T00:01:33.981Z,4.94
2023-11-18T00:04:01.117Z,4.87
2023-11-18T00:06:27.797Z,4.82
2023-11-18T00:08:54.163Z,4.66
2023-11-18T00:11:20.525Z,4.73
2023-11-18T00:13:47.857Z,4.87
2023-11-18T00:16:15.097Z,4.78
2023-11-18T00:18:41.482Z,4.87
2023-11-18T00:21:08.406Z,4.80
2023-11-18T00:23:35.694Z,4.98
2023-11-18T00:26:03.112Z,5.06
2023-11-18T00:28:29.652Z,5.26
2023-11-18T00:30:56.516Z,5.18
2023-11-18T00:33:22.974Z,5.18
2023-11-18T00:35:49.358Z,5.18
2023-11-18T00:38:15.758Z,5.34
2023-11-18T00:40:42.331Z,5.28
2023-11-18T00:43:09.349Z,5.28
2023-11-18T00:45:35.732Z,5.31
2023-11-18T00:48:02.159Z,5.30
2023-11-18T00:50:28.667Z,5.19
2023-11-18T00:52:55.152Z,5.30
2023-11-18T00:55:21.770Z,5.25
2023-11-18T00:57:48.193Z,5.27
2023-11-18T01:00:20.091Z,5.24
2023-11-18T01:02:49.035Z,5.29
2023-11-18T01:05:16.103Z,5.28
2023-11-18T01:07:43.990Z,5.41
2023-11-18T01:10:14.669Z,5.40
2023-11-18T01:12:41.874Z,5.25
2023-11-18T01:15:11.477Z,5.17
2023-11-18T01:17:38.057Z,5.20
2023-11-18T01:20:10.449Z,5.34
2023-11-18T01:22:36.868Z,5.28
2023-11-18T01:25:03.668Z,5.27
2023-11-18T01:27:30.116Z,5.31
2023-11-18T01:29:56.609Z,5.35
2023-11-18T01:32:23.042Z,5.57
2023-11-18T01:34:51.152Z,5.65
2023-11-18T01:37:18.343Z,5.68
2023-11-18T01:39:44.768Z,5.49
2023-11-18T01:42:12.742Z,5.67
2023-11-18T01:44:39.143Z,5.50
2023-11-18T01:47:07.546Z,5.52
2023-11-18T01:49:40.839Z,5.61
2023-11-18T01:52:11.387Z,5.69
2023-11-18T01:54:39.245Z,5.58
2023-11-18T01:57:07.377Z,5.92
2023-11-18T01:59:34.897Z,5.72
2023-11-18T02:02:02.819Z,5.78
2023-11-18T02:04:29.577Z,5.72
2023-11-18T02:06:57.129Z,5.78
2023-11-18T02:09:29.530Z,5.86
2023-11-18T02:12:01.699Z,5.88
2023-11-18T02:14:31.134Z,5.71
2023-11-18T02:17:03.311Z,5.73
2023-11-18T02:19:31.168Z,5.77
2023-11-18T02:21:58.039Z,5.92
2023-11-18T02:24:37.955Z,5.88
2023-11-18T02:27:06.962Z,5.81
2023-11-18T02:29:37.097Z,5.87
2023-11-18T02:32:16.635Z,5.81
2023-11-18T02:34:52.525Z,6.09
2023-11-18T02:37:19.464Z,5.89
2023-11-18T02:39:52.200Z,5.75
2023-11-18T02:42:19.262Z,5.74
2023-11-18T02:44:50.997Z,5.86
2023-11-18T02:47:18.331Z,5.86
2023-11-18T02:49:44.724Z,5.84
2023-11-18T02:52:11.229Z,5.97
2023-11-18T02:54:38.340Z,5.90
2023-11-18T02:57:04.808Z,5.80
2023-11-18T02:59:32.008Z,5.89
2023-11-18T03:01:58.511Z,5.88
2023-11-18T03:04:24.967Z,5.88
2023-11-18T03:06:51.663Z,5.80
2023-11-18T03:09:19.650Z,5.86
2023-11-18T03:11:46.109Z,5.93
2023-11-18T03:14:13.434Z,5.85
2023-11-18T03:16:40.327Z,5.96
2023-11-18T03:19:07.953Z,5.83
2023-11-18T03:21:34.372Z,5.81
2023-11-18T03:24:00.905Z,5.81
2023-11-18T03:26:27.287Z,5.66
2023-11-18T03:28:53.824Z,5.70
2023-11-18T03:31:20.928Z,5.87
2023-11-18T03:33:47.408Z,5.81
2023-11-18T03:36:13.824Z,5.84
2023-11-18T03:38:40.176Z,5.84
2023-11-18T03:41:06.723Z,5.74
2023-11-18T03:43:33.154Z,5.80
2023-11-18T03:46:01.786Z,5.78
2023-11-18T03:48:28.202Z,6.03
2023-11-18T03:50:54.954Z,5.85
2023-11-18T03:53:21.301Z,6.10
2023-11-18T03:55:47.737Z,5.89
2023-11-18T03:58:14.160Z,5.88
2023-11-18T04:00:40.522Z,5.80
2023-11-18T04:03:08.545Z,5.84
2023-11-18T04:05:35.797Z,5.76
2023-11-18T04:08:02.594Z,5.99
2023-11-18T04:10:28.968Z,5.76
2023-11-18T04:12:55.335Z,5.56
2023-11-18T04:15:21.762Z,5.58
2023-11-18T04:17:48.216Z,5.77
2023-11-18T04:20:17.106Z,5.63
2023-11-18T04:22:44.744Z,5.66
2023-11-18T04:25:12.656Z,5.65
2023-11-18T04:27:39.774Z,5.88
2023-11-18T04:30:07.358Z,5.64
2023-11-18T04:32:34.150Z,5.81
2023-11-18T04:35:08.251Z,5.79
2023-11-18T04:37:35.795Z,5.85
2023-11-18T04:40:03.337Z,5.52
2023-11-18T04:42:30.740Z,5.63
2023-11-18T04:44:59.048Z,5.67
2023-11-18T04:47:26.425Z,5.74
2023-11-18T04:49:53.302Z,5.69
2023-11-18T04:52:19.912Z,5.60
2023-11-18T04:54:48.985Z,5.79
2023-11-18T04:57:15.848Z,5.62
2023-11-18T04:59:45.071Z,5.57
2023-11-18T05:02:11.607Z,5.67
2023-11-18T05:04:38.207Z,5.85
2023-11-18T05:07:05.349Z,5.72
2023-11-18T05:09:32.272Z,5.64
2023-11-18T05:11:59.698Z,5.70
2023-11-18T05:14:27.410Z,5.70
2023-11-18T05:16:54.660Z,5.76
2023-11-18T05:19:21.452Z,5.54
2023-11-18T05:21:50.530Z,5.66
2023-11-18T05:24:17.246Z,5.69
2023-11-18T05:26:43.697Z,5.61
2023-11-18T05:29:10.144Z,5.50
2023-11-18T05:31:38.120Z,5.55
2023-11-18T05:34:04.601Z,5.53
2023-11-18T05:36:37.982Z,5.62
2023-11-18T05:39:05.979Z,5.60
2023-11-18T05:41:33.042Z,5.55
2023-11-18T05:43:59.631Z,5.52
2023-11-18T05:46:29.112Z,5.52
2023-11-18T05:48:55.828Z,5.54
2023-11-18T05:51:27.825Z,5.79
2023-11-18T05:53:54.351Z,5.62
2023-11-18T05:56:23.392Z,5.75
2023-11-18T05:58:50.130Z,5.63
2023-11-18T06:01:19.545Z,5.66
2023-11-18T06:03:48.105Z,5.79
2023-11-18T06:06:20.001Z,5.80
2023-11-18T06:08:48.997Z,5.65
2023-11-18T06:11:16.832Z,5.69
2023-11-18T06:13:47.553Z,5.68
2023-11-18T06:16:21.304Z,5.75
2023-11-18T06:18:49.373Z,5.90
2023-11-18T06:21:17.862Z,5.74
2023-11-18T06:23:44.770Z,5.80
2023-11-18T06:26:11.587Z,5.81
2023-11-18T06:28:42.624Z,5.80
2023-11-18T06:31:13.481Z,5.95
2023-11-18T06:33:43.900Z,6.14
2023-11-18T06:36:21.106Z,6.02
2023-11-18T06:38:50.947Z,5.97
2023-11-18T06:41:24.734Z,5.91
2023-11-18T06:43:58.775Z,5.93
2023-11-18T06:46:26.700Z,5.97
2023-11-18T06:48:58.453Z,6.08
2023-11-18T06:51:26.993Z,6.07
2023-11-18T06:53:56.042Z,6.08
2023-11-18T06:56:22.873Z,6.02
2023-11-18T06:58:49.214Z,6.15
2023-11-18T07:01:16.583Z,6.26
2023-11-18T07:03:43.899Z,6.03
2023-11-18T07:06:10.773Z,6.22
2023-11-18T07:08:38.097Z,6.14
2023-11-18T07:11:04.852Z,6.16
2023-11-18T07:13:31.341Z,6.19
2023-11-18T07:15:58.604Z,6.32
2023-11-18T07:18:25.215Z,6.36
2023-11-18T07:20:54.769Z,6.32
2023-11-18T07:23:21.118Z,6.33
2023-11-18T07:25:48.028Z,6.49
2023-11-18T07:28:18.231Z,6.44
2023-11-18T07:30:48.295Z,6.57
2023-11-18T07:33:15.849Z,6.51
2023-11-18T07:35:42.875Z,6.42
2023-11-18T07:38:10.444Z,6.48
2023-11-18T07:40:38.651Z,6.63
2023-11-18T07:43:05.134Z,6.66
2023-11-18T07:45:39.060Z,6.74
2023-11-18T07:48:09.756Z,6.67
2023-11-18T07:50:37.650Z,6.63
2023-11-18T07:53:05.425Z,6.57
2023-11-18T07:55:35.146Z,6.68
2023-11-18T07:58:02.743Z,6.82
2023-11-18T08:00:31.949Z,6.88
2023-11-18T08:03:01.067Z,6.92
2023-11-18T08:05:29.170Z,6.87
2023-11-18T08:07:55.593Z,6.98
2023-11-18T08:10:22.985Z,6.93
2023-11-18T08:12:49.514Z,6.96
2023-11-18T08:15:16.182Z,6.92
2023-11-18T08:17:42.599Z,7.22
2023-11-18T08:20:15.117Z,7.07
2023-11-18T08:22:45.867Z,7.15
2023-11-18T08:25:13.830Z,7.19
2023-11-18T08:27:43.598Z,7.05
2023-11-18T08:30:14.446Z,7.08
2023-11-18T08:32:47.379Z,7.07
2023-11-18T08:35:15.600Z,7.29
2023-11-18T08:37:46.515Z,7.25
2023-11-18T08:40:16.659Z,7.19
2023-11-18T08:42:51.977Z,7.26
2023-11-18T08:45:20.429Z,7.28
2023-11-18T08:47:49.744Z,7.26
2023-11-18T08:50:17.880Z,7.31
2023-11-18T08:52:48.284Z,7.46
2023-11-18T08:55:19.601Z,7.36
2023-11-18T08:57:53.412Z,7.39
2023-11-18T09:00:40.004Z,7.39
2023-11-18T09:03:06.576Z,7.37
2023-11-18T09:05:34.013Z,7.36
2023-11-18T09:08:03.100Z,7.40
2023-11-18T09:10:29.699Z,7.28
2023-11-18T09:12:57.513Z,7.32
2023-11-18T09:15:25.024Z,7.36
2023-11-18T09:17:51.534Z,7.43
2023-11-18T09:20:23.242Z,7.41
2023-11-18T09:22:50.188Z,7.41
2023-11-18T09:25:16.856Z,7.38
2023-11-18T09:27:43.462Z,7.45
2023-11-18T09:30:14.811Z,7.46
2023-11-18T09:32:44.356Z,7.38
2023-11-18T09:35:13.627Z,7.41
2023-11-18T09:37:43.629Z,7.40
2023-11-18T09:40:14.809Z,7.41
2023-11-18T09:42:44.724Z,7.36
2023-11-18T09:45:21.066Z,7.48
2023-11-18T09:47:54.566Z,7.44
2023-11-18T09:50:29.738Z,7.52
2023-11-18T09:53:06.545Z,7.55
2023-11-18T09:55:45.762Z,7.42
2023-11-18T09:58:17.451Z,7.41
2023-11-18T10:00:44.582Z,7.59
2023-11-18T10:03:16.760Z,7.51
2023-11-18T10:05:44.031Z,7.55
2023-11-18T10:08:10.643Z,7.62
2023-11-18T10:10:38.137Z,7.73
2023-11-18T10:13:09.838Z,7.87
2023-11-18T10:15:36.445Z,7.91
2023-11-18T10:18:12.600Z,7.84
2023-11-18T10:20:48.953Z,7.83
2023-11-18T10:23:20.894Z,7.97
2023-11-18T10:25:51.644Z,7.97
2023-11-18T10:28:38.516Z,7.93
2023-11-18T10:31:06.681Z,8.00
2023-11-18T10:33:39.462Z,8.00
2023-11-18T10:36:13.621Z,8.01
2023-11-18T10:38:50.682Z,7.98
2023-11-18T10:41:18.051Z,7.92
2023-11-18T10:43:45.753Z,8.04
2023-11-18T10:46:14.494Z,8.03
2023-11-18T10:48:51.391Z,8.09
2023-11-18T10:51:20.250Z,8.07
2023-11-18T10:54:04.925Z,8.02
2023-11-18T10:56:31.616Z,8.16
2023-11-18T10:58:59.961Z,8.25
2023-11-18T11:01:34.496Z,8.18
2023-11-18T11:04:05.358Z,8.14
2023-11-18T11:06:33.198Z,8.15
2023-11-18T11:08:59.961Z,8.11
2023-11-18T11:11:29.796Z,8.25
2023-11-18T11:13:58.835Z,8.29
2023-11-18T11:16:36.298Z,8.23
2023-11-18T11:19:09.559Z,8.07
2023-11-18T11:21:54.379Z,8.01
2023-11-18T11:24:43.373Z,8.07
2023-11-18T11:27:30.257Z,8.14
2023-11-18T11:30:11.354Z,8.11
2023-11-18T11:32:52.785Z,8.10
2023-11-18T11:35:32.042Z,8.27
2023-11-18T11:38:10.928Z,8.17
2023-11-18T11:40:38.645Z,8.21
2023-11-18T11:43:11.666Z,8.15
2023-11-18T11:45:40.230Z,8.09
2023-11-18T11:48:20.943Z,8.32
2023-11-18T11:51:21.537Z,8.31
2023-11-18T11:53:54.501Z,8.33
2023-11-18T11:56:25.453Z,8.49
2023-11-18T11:58:54.702Z,8.41
2023-11-18T12:01:34.670Z,8.48
2023-11-18T12:04:07.971Z,8.46
2023-11-18T12:06:36.734Z,8.31
2023-11-18T12:09:07.586Z,8.45
2023-11-18T12:11:42.909Z,8.27
2023-11-18T12:14:25.104Z,8.37
2023-11-18T12:17:11.741Z,8.31
2023-11-18T12:19:49.148Z,8.17
2023-11-18T12:22:27.782Z,8.36
2023-11-18T12:25:00.526Z,8.37
2023-11-18T12:27:44.427Z,8.35
2023-11-18T12:30:16.906Z,8.31
2023-11-18T12:33:12.605Z,8.21
2023-11-18T12:36:03.544Z,8.40
2023-11-18T12:39:14.607Z,8.44
2023-11-18T12:41:42.066Z,8.64
2023-11-18T12:44:24.946Z,8.50
2023-11-18T12:46:56.593Z,8.42
2023-11-18T12:49:24.793Z,8.45
2023-11-18T12:51:53.412Z,8.47
2023-11-18T12:54:30.073Z,8.58
2023-11-18T12:56:57.163Z,8.70
2023-11-18T12:59:24.732Z,8.85
2023-11-18T13:01:58.222Z,8.67
2023-11-18T13:04:26.222Z,8.68
2023-11-18T13:06:54.719Z,8.85
2023-11-18T13:09:26.635Z,8.78
2023-11-18T13:11:57.193Z,8.85
2023-11-18T13:14:36.836Z,8.74
2023-11-18T13:17:07.006Z,8.98
2023-11-18T13:19:35.366Z,8.87
2023-11-18T13:22:08.901Z,8.93
2023-11-18T13:24:47.461Z,8.81
2023-11-18T13:27:19.213Z,8.84
2023-11-18T13:29:52.354Z,8.85
2023-11-18T13:32:23.919Z,8.79
2023-11-18T13:34:53.242Z,8.76
2023-11-18T13:37:23.062Z,8.86
2023-11-18T13:39:56.472Z,8.82
2023-11-18T13:42:29.132Z,8.70
2023-11-18T13:45:09.426Z,8.67
2023-11-18T13:47:35.912Z,8.77
2023-11-18T13:50:03.110Z,8.79
2023-11-18T13:52:31.674Z,8.76
2023-11-18T13:54:58.278Z,8.67
2023-11-18T13:57:24.939Z,8.60
2023-11-18T13:59:51.965Z,8.81
2023-11-18T14:02:18.809Z,8.58
2023-11-18T14:04:45.597Z,8.76
2023-11-18T14:07:16.994Z,8.71
2023-11-18T14:09:43.897Z,8.69
2023-11-18T14:12:10.254Z,8.74
2023-11-18T14:14:37.272Z,8.65
2023-11-18T14:17:03.862Z,8.63
2023-11-18T14:19:30.379Z,8.59
2023-11-18T14:21:57.295Z,8.66
2023-11-18T14:24:28.758Z,8.57
2023-11-18T14:26:55.790Z,8.62
2023-11-18T14:29:22.209Z,8.64
2023-11-18T14:31:48.836Z,8.64
2023-11-18T14:34:15.278Z,8.71
2023-11-18T14:36:42.247Z,8.66
2023-11-18T14:39:15.436Z,8.57
2023-11-18T14:41:41.960Z,8.57
2023-11-18T14:44:10.504Z,8.45
2023-11-18T14:46:41.432Z,8.48
2023-11-18T14:49:08.454Z,8.48
2023-11-18T14:51:35.086Z,8.44
2023-11-18T14:54:01.475Z,8.36
2023-11-18T14:56:27.895Z,8.36
2023-11-18T14:58:54.389Z,8.28
2023-11-18T15:01:21.050Z,8.30
2023-11-18T15:03:47.587Z,8.36
2023-11-18T15:06:14.037Z,8.39
2023-11-18T15:08:46.501Z,8.31
2023-11-18T15:11:16.389Z,8.29
2023-11-18T15:13:43.139Z,8.15
2023-11-18T15:16:09.758Z,8.20
2023-11-18T15:18:36.541Z,8.23
2023-11-18T15:21:03.028Z,8.19
2023-11-18T15:23:29.436Z,8.21
2023-11-18T15:25:57.730Z,8.15
2023-11-18T15:28:24.125Z,8.18
2023-11-18T15:30:50.565Z,8.15
2023-11-18T15:33:17.168Z,8.19
2023-11-18T15:35:43.929Z,8.16
2023-11-18T15:38:17.644Z,8.07
2023-11-18T15:40:44.321Z,8.10
2023-11-18T15:43:13.674Z,8.11
2023-11-18T15:45:40.508Z,8.16
2023-11-18T15:48:08.437Z,8.21
2023-11-18T15:50:38.493Z,8.13
2023-11-18T15:53:08.404Z,8.09
2023-11-18T15:55:37.060Z,8.12
2023-11-18T15:58:04.710Z,8.05
2023-11-18T16:00:32.551Z,8.15
2023-11-18T16:03:02.396Z,8.15
2023-11-18T16:05:34.945Z,8.27
2023-11-18T16:08:02.784Z,8.26
2023-11-18T16:10:29.260Z,8.23
2023-11-18T16:12:57.000Z,8.05
2023-11-18T16:15:24.636Z,8.11
2023-11-18T16:17:51.624Z,8.23
2023-11-18T16:20:19.828Z,8.14
2023-11-18T16:22:48.940Z,8.09
2023-11-18T16:25:19.825Z,8.05
2023-11-18T16:27:46.726Z,8.09
2023-11-18T16:30:14.597Z,8.16
2023-11-18T16:32:41.545Z,8.18
2023-11-18T16:35:12.957Z,8.18
2023-11-18T16:37:43.059Z,8.20
2023-11-18T16:40:14.757Z,8.25
2023-11-18T16:42:42.064Z,8.31
2023-11-18T16:45:10.109Z,8.26
2023-11-18T16:47:37.612Z,8.16
2023-11-18T16:50:08.973Z,8.23
2023-11-18T16:52:36.379Z,8.43
2023-11-18T16:55:03.818Z,8.34
2023-11-18T16:57:30.642Z,8.34
2023-11-18T16:59:57.289Z,8.34
2023-11-18T17:02:23.728Z,8.25
2023-11-18T17:04:50.373Z,8.24
2023-11-18T17:07:17.751Z,8.40
2023-11-18T17:09:44.123Z,8.28
2023-11-18T17:12:10.714Z,8.39
2023-11-18T17:14:37.179Z,8.37
2023-11-18T17:17:05.326Z,8.33
2023-11-18T17:19:31.865Z,8.45
2023-11-18T17:21:58.260Z,8.34
2023-11-18T17:24:24.733Z,8.40
2023-11-18T17:26:52.654Z,8.45
2023-11-18T17:29:19.079Z,8.57
2023-11-18T17:31:46.864Z,8.38
2023-11-18T17:34:13.347Z,8.53
2023-11-18T17:36:39.721Z,8.44
2023-11-18T17:39:07.570Z,8.45
2023-11-18T17:41:34.032Z,8.55
2023-11-18T17:44:00.481Z,8.70
2023-11-18T17:46:26.980Z,8.66
2023-11-18T17:48:53.880Z,8.64
2023-11-18T17:51:23.057Z,8.58
2023-11-18T17:53:49.676Z,8.70
2023-11-18T17:56:16.107Z,8.62
2023-11-18T17:58:42.876Z,8.63
2023-11-18T18:01:09.876Z,8.66
2023-11-18T18:03:36.409Z,8.67
2023-11-18T18:06:04.566Z,8.78
2023-11-18T18:08:30.984Z,8.81
2023-11-18T18:10:57.386Z,8.83
2023-11-18T18:13:23.803Z,8.85
2023-11-18T18:15:50.165Z,8.78
2023-11-18T18:18:16.644Z,8.88
2023-11-18T18:20:49.104Z,8.84
2023-11-18T18:23:16.560Z,8.83
2023-11-18T18:25:43.427Z,8.86
2023-11-18T18:28:10.162Z,8.99
2023-11-18T18:30:37.960Z,8.91
2023-11-18T18:33:05.791Z,8.74
2023-11-18T18:35:32.489Z,8.86
2023-11-18T18:37:58.948Z,8.93
2023-11-18T18:40:25.361Z,8.98
2023-11-18T18:42:51.791Z,8.95
2023-11-18T18:45:19.579Z,8.98
2023-11-18T18:47:46.089Z,8.95
2023-11-18T18:50:12.675Z,8.89
2023-11-18T18:52:39.096Z,9.12
2023-11-18T18:55:07.516Z,8.99
2023-11-18T18:57:34.818Z,9.06
2023-11-18T19:00:01.154Z,9.02
2023-11-18T19:02:27.694Z,9.07
2023-11-18T19:04:54.108Z,9.02
2023-11-18T19:07:22.925Z,9.11
2023-11-18T19:09:50.009Z,9.27
2023-11-18T19:12:16.496Z,9.20
2023-11-18T19:14:42.938Z,9.21
2023-11-18T19:17:09.372Z,9.03
2023-11-18T19:19:36.597Z,9.08
2023-11-18T19:22:06.402Z,9.12
2023-11-18T19:24:33.942Z,9.20
2023-11-18T19:27:02.028Z,9.20
2023-11-18T19:29:29.021Z,9.20
2023-11-18T19:31:55.452Z,9.31
2023-11-18T19:34:22.604Z,9.32
2023-11-18T19:36:49.151Z,9.46
2023-11-18T19:39:15.788Z,9.40
2023-11-18T19:41:42.570Z,9.44
2023-11-18T19:44:09.162Z,9.43
2023-11-18T19:46:35.542Z,9.43
2023-11-18T19:49:01.978Z,9.35
2023-11-18T19:51:29.038Z,9.61
2023-11-18T19:53:55.430Z,9.56
2023-11-18T19:56:21.802Z,9.45
2023-11-18T19:58:48.228Z,9.58
2023-11-18T20:03:44.899Z,9.70
2023-11-18T20:06:12.308Z,9.66
2023-11-18T20:08:39.600Z,9.63
2023-11-18T20:11:08.192Z,9.68
2023-11-18T20:13:35.014Z,9.75
2023-11-18T20:16:01.377Z,9.76
2023-11-18T20:18:27.779Z,9.72
2023-11-18T20:20:55.509Z,9.71
2023-11-18T20:23:22.671Z,9.83
2023-11-18T20:25:49.178Z,9.84
2023-11-18T20:28:17.002Z,9.74
2023-11-18T20:30:43.427Z,9.98
2023-11-18T20:33:11.036Z,9.97
2023-11-18T20:35:37.691Z,9.71
2023-11-18T20:38:04.323Z,9.87
2023-11-18T20:40:31.681Z,9.84
2023-11-18T20:42:58.097Z,9.89
2023-11-18T20:45:25.123Z,10.05
2023-11-18T20:47:52.158Z,10.00
2023-11-18T20:50:18.655Z,9.94
2023-11-18T20:52:45.930Z,10.08
2023-11-18T20:55:13.075Z,10.19
2023-11-18T20:57:39.943Z,10.26
2023-11-18T21:00:08.691Z,10.35
2023-11-18T21:02:35.828Z,10.61
2023-11-18T21:05:03.621Z,10.65
2023-11-18T21:07:30.107Z,10.45
2023-11-18T21:09:57.503Z,10.63
2023-11-18T21:12:25.108Z,10.52
2023-11-18T21:14:52.273Z,10.42
2023-11-18T21:17:21.056Z,10.31
2023-11-18T21:19:47.673Z,10.52
2023-11-18T21:22:16.678Z,10.44
2023-11-18T21:24:43.033Z,10.57
2023-11-18T21:27:09.469Z,10.54
2023-11-18T21:29:35.936Z,10.51
2023-11-18T21:32:03.080Z,10.56
2023-11-18T21:34:29.628Z,10.67
2023-11-18T21:36:55.974Z,10.73
2023-11-18T21:39:22.636Z,10.67
2023-11-18T21:41:48.995Z,10.73
2023-11-18T21:44:15.413Z,10.93
2023-11-18T21:46:41.849Z,10.68
2023-11-18T21:49:10.592Z,10.76
2023-11-18T21:51:37.872Z,10.74
2023-11-18T21:54:05.076Z,10.80
2023-11-18T21:56:35.271Z,10.85
2023-11-18T21:59:04.174Z,10.76
2023-11-18T22:01:31.533Z,10.74
2023-11-18T22:03:58.080Z,10.63
2023-11-18T22:06:25.339Z,10.83
2023-11-18T22:08:52.420Z,10.84
2023-11-18T22:11:20.258Z,10.77
2023-11-18T22:13:50.506Z,10.83
2023-11-18T22:16:16.952Z,10.90
2023-11-18T22:18:44.692Z,11.02
2023-11-18T22:21:12.272Z,10.84
2023-11-18T22:23:39.193Z,10.85
2023-11-18T22:26:05.960Z,10.71
2023-11-18T22:28:33.247Z,10.76
2023-11-18T22:31:00.363Z,10.76
2023-11-18T22:33:27.111Z,10.77
2023-11-18T22:35:55.058Z,10.92
2023-11-18T22:38:22.995Z,10.87
2023-11-18T22:40:50.383Z,10.84
2023-11-18T22:43:16.926Z,10.89
2023-11-18T22:45:43.976Z,11.00
2023-11-18T22:48:10.519Z,10.96
2023-11-18T22:50:39.325Z,11.16
2023-11-18T22:53:09.478Z,11.19
2023-11-18T22:55:39.260Z,11.14
2023-11-18T22:58:06.059Z,11.07
2023-11-18T23:00:35.107Z,10.96
2023-11-18T23:03:03.083Z,10.91
2023-11-18T23:05:29.623Z,10.97
2023-11-18T23:07:59.111Z,10.93
2023-11-18T23:10:26.039Z,11.13
2023-11-18T23:12:53.748Z,11.08
2023-11-18T23:15:22.419Z,10.87
2023-11-18T23:17:50.447Z,10.84
2023-11-18T23:20:17.128Z,10.93
2023-11-18T23:22:43.584Z,10.99
2023-11-18T23:25:10.082Z,10.95
2023-11-18T23:27:37.768Z,11.14
2023-11-18T23:30:07.308Z,10.99
2023-11-18T23:32:34.080Z,11.16
2023-11-18T23:35:01.913Z,11.25
2023-11-18T23:37:28.749Z,11.17
2023-11-18T23:39:55.306Z,11.10
2023-11-18T23:42:24.606Z,11.20
2023-11-18T23:44:52.164Z,11.22
2023-11-18T23:47:18.544Z,11.09
2023-11-18T23:49:44.907Z,11.07
2023-11-18T23:52:11.345Z,11.05
2023-11-18T23:54:37.742Z,11.18
2023-11-18T23:57:05.574Z,11.30
2023-11-18T23:59:32.716Z,11.18
